Time;durP1;ratioP1;P1;durP2;ratioP2;P2;SDS_P1;SDS_P2;PMS_P1;PMS_P2;Temp;Humidity;BMP_temperature;BMP_pressure;BME280_temperature;BME280_humidity;BME280_pressure;Samples;Min_cycle;Max_cycle;Signal;HPM_P1;HPM_P2
2022/11/15 00:00:09;;;;;;;19.97;12.50;;;12.80;87.70;;;;;;4989184;28;20490;-63
2022/11/15 00:02:35;;;;;;;23.00;12.77;;;12.80;87.80;;;;;;4984998;28;20028;-62
2022/11/15 00:05:00;;;;;;;22.57;12.50;;;12.80;87.90;;;;;;4987361;28;20046;-57
2022/11/15 00:07:26;;;;;;;21.90;11.83;;;12.70;87.90;;;;;;4988073;28;20027;-58
2022/11/15 00:09:52;;;;;;;20.03;12.10;;;12.80;87.90;;;;;;4986160;28;20431;-61
2022/11/15 00:12:17;;;;;;;18.00;12.07;;;12.80;87.90;;;;;;4988943;28;20022;-60
2022/11/15 00:14:43;;;;;;;18.60;12.37;;;12.70;88.00;;;;;;4989827;28;20030;-56
2022/11/15 00:17:08;;;;;;;18.77;11.93;;;12.80;88.00;;;;;;4985827;28;20398;-58
2022/11/15 00:19:34;;;;;;;19.90;12.57;;;12.80;88.00;;;;;;4987662;28;20117;-58
2022/11/15 00:22:00;;;;;;;18.75;11.63;;;12.80;88.20;;;;;;4987728;28;20027;-56
2022/11/15 00:24:26;;;;;;;19.30;12.57;;;12.80;87.90;;;;;;4986478;28;20383;-57
2022/11/15 00:26:51;;;;;;;17.07;12.30;;;12.80;88.00;;;;;;4987417;28;20026;-58
2022/11/15 00:29:17;;;;;;;23.90;12.93;;;12.80;87.90;;;;;;4989999;28;20034;-56
2022/11/15 00:31:42;;;;;;;24.67;13.90;;;12.70;88.40;;;;;;4987427;28;20501;-57
2022/11/15 00:34:10;;;;;;;21.50;13.60;;;12.70;88.70;;;;;;4986170;28;20038;-56
2022/11/15 00:36:35;;;;;;;20.88;12.73;;;12.70;88.70;;;;;;4987812;28;20026;-62
2022/11/15 00:39:03;;;;;;;24.53;12.73;;;12.70;88.60;;;;;;4986236;28;20027;-60
2022/11/15 00:41:28;;;;;;;21.88;13.35;;;12.60;88.90;;;;;;4989291;28;20018;-63
2022/11/15 00:43:54;;;;;;;28.90;13.60;;;12.60;88.90;;;;;;4986548;28;20405;-61
2022/11/15 00:46:19;;;;;;;22.13;12.57;;;12.60;88.70;;;;;;4986400;28;20046;-62
2022/11/15 00:48:45;;;;;;;19.97;12.77;;;12.70;88.60;;;;;;4984733;28;20029;-62
2022/11/15 00:51:10;;;;;;;22.67;12.87;;;12.70;89.00;;;;;;4983579;28;20097;-63
2022/11/15 00:53:36;;;;;;;19.40;12.50;;;12.70;88.80;;;;;;4986028;28;20501;-62
2022/11/15 00:56:02;;;;;;;21.17;10.57;;;12.80;88.50;;;;;;4986355;28;20490;-62
2022/11/15 00:58:27;;;;;;;20.20;11.37;;;12.70;88.40;;;;;;4987855;28;20113;-62
2022/11/15 01:00:53;;;;;;;17.47;11.63;;;12.70;88.50;;;;;;4983448;28;20378;-63
2022/11/15 01:03:18;;;;;;;19.90;11.30;;;12.60;88.70;;;;;;4988195;28;20492;-63
2022/11/15 01:05:44;;;;;;;19.30;12.07;;;12.70;89.00;;;;;;4985261;28;20050;-63
2022/11/15 01:08:14;;;;;;;24.53;13.97;;;12.60;89.10;;;;;;4987103;28;20037;-61
2022/11/15 01:10:40;;;;;;;21.65;12.38;;;12.60;88.80;;;;;;4985400;28;20018;-57
2022/11/15 01:13:05;;;;;;;20.35;11.50;;;12.60;88.80;;;;;;4984138;28;20037;-58
2022/11/15 01:15:31;;;;;;;20.23;11.87;;;12.70;88.50;;;;;;4987292;28;20029;-58
2022/11/15 01:17:56;;;;;;;17.57;11.53;;;12.70;88.20;;;;;;4988292;28;20073;-60
2022/11/15 01:20:22;;;;;;;21.00;12.03;;;12.70;88.30;;;;;;4985841;28;20085;-59
2022/11/15 01:22:47;;;;;;;19.60;12.00;;;12.70;88.50;;;;;;4987576;28;20465;-56
2022/11/15 01:25:13;;;;;;;21.50;11.73;;;12.70;88.60;;;;;;4988722;28;20046;-60
2022/11/15 01:27:39;;;;;;;19.00;12.70;;;12.70;88.30;;;;;;4987218;28;20023;-57
2022/11/15 01:30:05;;;;;;;24.93;13.00;;;12.70;88.60;;;;;;4986450;28;20101;-57
2022/11/15 01:32:31;;;;;;;22.63;12.88;;;12.70;88.70;;;;;;4986703;28;20023;-56
2022/11/15 01:34:56;;;;;;;24.20;12.85;;;12.70;88.60;;;;;;4985044;28;20031;-58
2022/11/15 01:37:22;;;;;;;19.13;11.20;;;12.60;88.40;;;;;;4985198;28;20026;-58
2022/11/15 01:39:48;;;;;;;21.73;12.03;;;12.70;88.50;;;;;;4986657;28;20033;-56
2022/11/15 01:42:14;;;;;;;18.77;12.43;;;12.70;88.50;;;;;;4985902;28;20031;-56
2022/11/15 01:44:54;;;;;;;30.13;13.20;;;12.70;89.10;;;;;;4985235;28;20046;-56
2022/11/15 01:47:30;;;;;;;18.38;11.23;;;12.70;88.70;;;;;;4984148;28;20031;-63
2022/11/15 01:50:07;;;;;;;18.53;11.20;;;12.70;88.40;;;;;;4982286;28;20035;-59
2022/11/15 01:52:35;;;;;;;20.35;11.40;;;12.60;88.90;;;;;;4987158;28;20077;-63
2022/11/15 01:55:09;;;;;;;18.80;11.52;;;12.60;88.90;;;;;;4985494;28;20037;-63
2022/11/15 01:57:35;;;;;;;19.77;11.40;;;12.50;88.90;;;;;;4982789;28;20034;-62
2022/11/15 02:00:03;;;;;;;17.23;11.55;;;12.50;88.90;;;;;;4990056;28;20081;-62
2022/11/15 02:02:28;;;;;;;22.02;11.30;;;12.50;89.00;;;;;;4992101;28;20132;-62
2022/11/15 02:04:54;;;;;;;18.60;11.53;;;12.50;89.10;;;;;;4989700;28;20495;-62
2022/11/15 02:07:21;;;;;;;18.93;11.77;;;12.50;89.80;;;;;;4991082;28;20096;-62
2022/11/15 02:09:47;;;;;;;17.95;10.90;;;12.50;89.50;;;;;;4987761;28;20502;-63
2022/11/15 02:12:17;;;;;;;17.25;11.13;;;12.50;89.10;;;;;;4990006;28;20034;-62
2022/11/15 02:14:46;;;;;;;16.60;10.15;;;12.50;89.40;;;;;;4987918;28;20035;-60
2022/11/15 02:17:40;;;;;;;16.63;10.02;;;12.50;89.30;;;;;;4986715;28;20522;-59
2022/11/15 02:20:36;;;;;;;18.17;11.02;;;12.50;89.10;;;;;;4982073;28;20057;-60
2022/11/15 02:23:04;;;;;;;18.90;11.07;;;12.50;89.40;;;;;;4988774;28;20030;-56
2022/11/15 02:25:36;;;;;;;15.75;10.43;;;12.50;89.10;;;;;;4990466;28;20093;-60
2022/11/15 02:28:22;;;;;;;15.48;10.77;;;12.50;89.50;;;;;;4989127;28;20023;-58
2022/11/15 02:30:50;;;;;;;19.05;10.63;;;12.50;89.80;;;;;;4987665;28;20030;-56
2022/11/15 02:33:28;;;;;;;15.05;10.25;;;12.40;89.60;;;;;;4988896;28;20509;-62
2022/11/15 02:36:09;;;;;;;16.13;8.85;;;12.40;89.70;;;;;;4989636;28;20423;-62
2022/11/15 02:39:01;;;;;;;15.38;8.68;;;12.40;90.00;;;;;;4989782;28;20101;-60
2022/11/15 02:41:38;;;;;;;12.45;8.35;;;12.40;89.90;;;;;;4989053;28;20402;-59
2022/11/15 02:44:13;;;;;;;11.68;7.85;;;12.30;89.90;;;;;;4984983;28;20018;-62
2022/11/15 02:49:32;;;;;;;9.85;6.28;;;12.40;90.00;;;;;;4989150;28;20037;-60
2022/11/15 02:51:58;;;;;;;12.25;6.30;;;12.40;90.10;;;;;;4987906;28;20038;-63
2022/11/15 02:54:26;;;;;;;8.47;6.07;;;12.40;89.80;;;;;;4987492;28;20104;-60
2022/11/15 02:56:55;;;;;;;13.10;7.20;;;12.40;89.50;;;;;;4988432;28;20494;-60
2022/11/15 02:59:21;;;;;;;10.40;6.65;;;12.40;89.80;;;;;;4989166;28;20034;-63
2022/11/15 03:02:04;;;;;;;9.77;6.97;;;12.50;89.60;;;;;;4985363;28;20027;-62
2022/11/15 03:04:36;;;;;;;9.57;7.22;;;12.50;89.10;;;;;;4985949;28;20042;-62
2022/11/15 03:07:18;;;;;;;9.48;6.82;;;12.60;89.20;;;;;;4988754;28;20037;-62
2022/11/15 03:09:57;;;;;;;9.07;6.15;;;12.60;88.70;;;;;;4982145;28;20037;-61
2022/11/15 03:12:30;;;;;;;9.23;6.18;;;12.60;88.80;;;;;;4988580;28;20032;-62
2022/11/15 03:15:08;;;;;;;10.07;6.53;;;12.60;88.70;;;;;;4988713;28;20037;-63
2022/11/15 03:17:38;;;;;;;8.07;5.53;;;12.60;88.50;;;;;;4988956;28;20140;-62
2022/11/15 03:20:07;;;;;;;8.23;5.75;;;12.60;88.40;;;;;;4986734;28;20030;-56
2022/11/15 03:22:40;;;;;;;10.70;6.38;;;12.60;89.30;;;;;;4986181;28;20037;-56
2022/11/15 03:25:10;;;;;;;8.15;5.82;;;12.60;88.90;;;;;;4987850;28;20525;-57
2022/11/15 03:27:41;;;;;;;7.88;5.85;;;12.60;88.80;;;;;;4989083;28;20014;-58
2022/11/15 03:30:08;;;;;;;7.15;5.47;;;12.60;88.40;;;;;;4985812;28;20038;-56
2022/11/15 03:32:44;;;;;;;9.85;5.70;;;12.70;88.40;;;;;;4986468;28;20462;-56
2022/11/15 03:35:14;;;;;;;7.15;5.28;;;12.60;88.70;;;;;;4986813;28;20061;-56
2022/11/15 03:37:51;;;;;;;15.32;5.57;;;12.60;88.50;;;;;;4989776;28;20057;-56
2022/11/15 03:40:18;;;;;;;;;;;12.60;88.70;;;;;;4989211;28;20041;-56
2022/11/15 03:42:55;;;;;;;6.32;4.80;;;12.60;88.80;;;;;;4987357;28;19914;-58
2022/11/15 03:45:32;;;;;;;9.50;5.77;;;12.60;88.80;;;;;;4990413;28;20066;-57
2022/11/15 03:48:00;;;;;;;13.10;5.72;;;12.60;89.00;;;;;;4986664;28;20304;-56
2022/11/15 03:50:26;;;;;;;10.60;6.18;;;12.60;88.70;;;;;;4986930;28;20528;-56
2022/11/15 03:52:54;;;;;;;8.07;5.60;;;12.60;88.70;;;;;;4989840;28;20089;-56
2022/11/15 03:55:21;;;;;;;7.55;5.57;;;12.60;88.40;;;;;;4987157;28;20042;-56
2022/11/15 03:57:52;;;;;;;11.10;5.55;;;12.60;88.80;;;;;;4990528;28;20533;-56
2022/11/15 04:00:18;;;;;;;8.57;4.63;;;12.60;88.70;;;;;;4986696;28;20033;-56
2022/11/15 04:02:44;;;;;;;9.10;4.67;;;12.60;88.50;;;;;;4987874;28;20031;-57
2022/11/15 04:05:10;;;;;;;9.33;5.63;;;12.50;88.70;;;;;;4984419;28;20066;-56
2022/11/15 04:07:35;;;;;;;11.07;6.40;;;12.60;88.70;;;;;;4986374;28;20073;-60
2022/11/15 04:10:03;;;;;;;7.80;5.30;;;12.60;88.80;;;;;;4989329;28;20372;-63
2022/11/15 04:12:34;;;;;;;7.78;5.05;;;12.60;88.50;;;;;;4985386;28;20762;-60
2022/11/15 04:15:08;;;;;;;18.50;6.15;;;12.60;88.50;;;;;;4980225;28;20121;-62
2022/11/15 04:17:42;;;;;;;15.27;5.72;;;12.60;88.90;;;;;;4987548;28;20061;-64
2022/11/15 04:25:44;;;;;;;8.30;5.30;;;12.60;89.00;;;;;;4988571;28;20049;-56
2022/11/15 04:28:10;;;;;;;9.60;5.97;;;12.60;89.10;;;;;;4987408;28;20048;-58
2022/11/15 04:30:36;;;;;;;11.48;6.82;;;12.50;89.50;;;;;;4989335;28;20038;-62
2022/11/15 04:33:01;;;;;;;8.23;5.80;;;12.50;89.20;;;;;;4987320;28;20031;-62
2022/11/15 04:35:27;;;;;;;11.33;5.93;;;12.60;88.70;;;;;;4985458;28;20188;-61
2022/11/15 04:37:53;;;;;;;9.63;7.53;;;12.60;89.10;;;;;;4987081;28;20026;-62
2022/11/15 04:40:19;;;;;;;12.93;7.72;;;12.40;89.40;;;;;;4989623;28;20394;-58
2022/11/15 04:42:45;;;;;;;12.07;7.13;;;12.40;89.50;;;;;;4985062;28;20387;-60
2022/11/15 04:45:10;;;;;;;13.80;6.77;;;12.40;89.40;;;;;;4986945;28;20038;-61
2022/11/15 04:47:36;;;;;;;13.13;8.13;;;12.50;89.10;;;;;;4987155;28;20027;-62
2022/11/15 04:50:02;;;;;;;9.37;6.50;;;12.40;89.30;;;;;;4987090;28;20037;-62
2022/11/15 04:52:28;;;;;;;15.75;8.93;;;12.40;89.40;;;;;;4984950;28;20471;-59
2022/11/15 04:54:53;;;;;;;13.43;8.00;;;12.40;89.20;;;;;;4986659;28;20026;-61
2022/11/15 04:57:19;;;;;;;12.17;8.97;;;12.40;89.50;;;;;;4983743;28;20035;-60
2022/11/15 04:59:45;;;;;;;21.03;13.90;;;12.30;89.50;;;;;;4987763;28;20026;-60
2022/11/15 05:02:10;;;;;;;16.27;8.20;;;12.40;89.30;;;;;;4984861;28;20041;-63
2022/11/15 05:04:36;;;;;;;13.03;7.90;;;12.40;89.00;;;;;;4988671;28;20089;-62
2022/11/15 05:07:03;;;;;;;11.27;6.87;;;12.30;89.30;;;;;;4985387;28;20031;-63
2022/11/15 05:09:29;;;;;;;12.20;6.70;;;12.30;89.10;;;;;;4984185;28;20064;-60
2022/11/15 05:11:55;;;;;;;9.77;6.10;;;12.30;89.00;;;;;;4987225;28;20534;-60
2022/11/15 05:14:20;;;;;;;9.50;6.47;;;12.30;89.60;;;;;;4985333;28;20019;-62
2022/11/15 05:16:46;;;;;;;11.97;7.50;;;12.30;89.30;;;;;;4986680;28;20108;-62
2022/11/15 05:19:11;;;;;;;16.87;8.20;;;12.20;89.60;;;;;;4988496;28;20029;-63
2022/11/15 05:21:37;;;;;;;12.93;8.33;;;12.20;89.80;;;;;;4985385;28;20057;-62
2022/11/15 05:24:03;;;;;;;12.88;7.38;;;12.20;89.70;;;;;;4982738;28;20430;-63
2022/11/15 05:26:29;;;;;;;11.02;6.68;;;12.20;89.90;;;;;;4987135;28;20038;-63
2022/11/15 05:28:57;;;;;;;15.90;8.67;;;12.20;89.50;;;;;;4987613;28;20042;-64
2022/11/15 05:31:23;;;;;;;13.85;7.20;;;12.30;89.50;;;;;;4984864;28;20019;-55
2022/11/15 05:33:51;;;;;;;10.15;7.47;;;12.30;89.20;;;;;;4983061;28;20034;-58
2022/11/15 05:36:31;;;;;;;14.52;8.10;;;12.30;89.30;;;;;;4986372;28;20029;-57
2022/11/15 05:38:57;;;;;;;16.88;8.18;;;12.30;89.40;;;;;;4983448;28;20027;-56
2022/11/15 05:41:30;;;;;;;16.90;9.70;;;12.20;89.40;;;;;;4987883;28;20093;-60
2022/11/15 05:43:56;;;;;;;17.58;10.30;;;12.30;89.50;;;;;;4982584;28;20027;-58
2022/11/15 05:46:22;;;;;;;15.00;9.15;;;12.20;89.90;;;;;;4985603;28;20066;-56
2022/11/15 05:48:50;;;;;;;15.93;9.10;;;12.20;90.00;;;;;;4983106;28;20050;-56
2022/11/15 05:51:18;;;;;;;18.95;8.63;;;12.20;89.80;;;;;;4981812;28;20022;-59
2022/11/15 05:53:45;;;;;;;14.10;8.30;;;12.20;89.80;;;;;;4986295;28;20035;-57
2022/11/15 05:56:11;;;;;;;16.50;8.65;;;12.20;89.70;;;;;;4985341;28;20038;-56
2022/11/15 05:58:37;;;;;;;13.70;9.05;;;12.20;90.00;;;;;;4982624;28;20028;-56
2022/11/15 06:01:03;;;;;;;15.00;8.88;;;12.20;89.90;;;;;;4985158;28;20303;-58
2022/11/15 06:03:29;;;;;;;17.77;7.97;;;12.20;89.70;;;;;;4981726;28;20015;-58
2022/11/15 06:05:55;;;;;;;15.93;9.87;;;12.20;89.50;;;;;;4977566;28;20133;-60
2022/11/15 06:08:21;;;;;;;;;;;12.10;90.00;;;;;;4986681;28;20018;-56
2022/11/15 06:10:46;;;;;;;17.70;9.60;;;12.20;89.60;;;;;;4984829;28;19910;-56
2022/11/15 06:13:12;;;;;;;13.30;7.90;;;12.10;89.60;;;;;;4985079;28;20077;-57
2022/11/15 06:15:38;;;;;;;20.17;9.97;;;12.10;89.50;;;;;;4986421;28;20026;-56
2022/11/15 06:18:04;;;;;;;19.97;11.40;;;12.10;89.50;;;;;;4984375;28;20034;-57
2022/11/15 06:20:30;;;;;;;62.30;28.00;;;12.20;89.50;;;;;;4985117;28;20023;-56
2022/11/15 06:23:04;;;;;;;32.55;15.90;;;12.20;89.00;;;;;;4980499;28;21153;-56
2022/11/15 06:25:30;;;;;;;20.75;10.52;;;12.20;89.20;;;;;;4987172;28;20041;-57
2022/11/15 06:27:58;;;;;;;17.88;9.63;;;12.10;89.20;;;;;;4982762;28;20513;-56
2022/11/15 06:30:25;;;;;;;14.30;9.05;;;12.10;89.20;;;;;;4985740;28;20113;-60
2022/11/15 06:32:51;;;;;;;15.20;9.32;;;12.10;89.60;;;;;;4982358;28;20479;-62
2022/11/15 06:35:17;;;;;;;19.23;10.02;;;12.10;89.70;;;;;;4985910;28;20045;-62
2022/11/15 06:37:42;;;;;;;21.15;11.73;;;12.00;90.10;;;;;;4982688;28;20034;-59
2022/11/15 06:40:09;;;;;;;17.93;10.23;;;12.00;90.30;;;;;;4984724;28;20037;-57
2022/11/15 06:42:35;;;;;;;18.33;10.13;;;12.00;90.30;;;;;;4986140;28;20022;-62
2022/11/15 06:45:01;;;;;;;20.58;11.43;;;12.00;90.20;;;;;;4986071;28;20049;-62
2022/11/15 06:47:27;;;;;;;16.00;10.37;;;12.00;90.50;;;;;;4985721;28;20046;-68
2022/11/15 06:49:52;;;;;;;19.95;10.48;;;12.00;90.60;;;;;;4989309;28;20019;-66
2022/11/15 06:52:19;;;;;;;16.73;9.60;;;12.00;90.50;;;;;;4988608;28;20045;-62
2022/11/15 06:54:45;;;;;;;16.73;10.07;;;12.00;90.50;;;;;;4987473;28;20026;-64
2022/11/15 06:57:10;;;;;;;14.68;9.45;;;12.10;90.50;;;;;;4989235;28;20035;-68
2022/11/15 06:59:36;;;;;;;16.47;10.70;;;12.10;90.30;;;;;;4987185;28;20613;-67
2022/11/15 07:02:02;;;;;;;16.67;9.67;;;12.10;90.30;;;;;;4986986;28;20046;-65
2022/11/15 07:04:28;;;;;;;18.08;9.10;;;12.10;90.30;;;;;;4989813;28;20290;-65
2022/11/15 07:06:53;;;;;;;15.63;9.30;;;12.20;90.20;;;;;;4986611;28;20530;-67
2022/11/15 07:09:19;;;;;;;16.33;9.40;;;12.30;90.00;;;;;;4986474;28;20034;-63
2022/11/15 07:11:45;;;;;;;18.80;10.77;;;12.30;90.20;;;;;;4990931;28;20029;-65
2022/11/15 07:14:10;;;;;;;19.67;11.23;;;12.30;90.30;;;;;;4987012;28;20102;-66
2022/11/15 07:16:36;;;;;;;16.57;10.07;;;12.20;90.40;;;;;;4985890;28;20376;-66
2022/11/15 07:19:02;;;;;;;15.10;9.57;;;12.30;90.30;;;;;;4990536;28;20052;-65
2022/11/15 07:21:28;;;;;;;19.23;10.60;;;12.30;90.30;;;;;;4986402;28;20038;-63
2022/11/15 07:23:53;;;;;;;16.20;10.30;;;12.30;90.30;;;;;;4988246;28;20023;-65
2022/11/15 07:26:19;;;;;;;16.70;9.63;;;12.40;90.20;;;;;;4987334;28;20392;-63
2022/11/15 07:28:45;;;;;;;13.53;9.07;;;12.40;90.10;;;;;;4989009;28;20113;-64
2022/11/15 07:31:11;;;;;;;18.23;10.17;;;12.40;90.10;;;;;;4987087;28;20058;-60
2022/11/15 07:33:36;;;;;;;16.00;10.85;;;12.40;90.40;;;;;;4988104;28;20034;-66
2022/11/15 07:36:05;;;;;;;19.35;10.73;;;12.30;90.40;;;;;;4986618;28;20050;-66
2022/11/15 07:38:32;;;;;;;19.20;10.65;;;12.30;90.40;;;;;;4988424;28;20061;-66
2022/11/15 07:41:00;;;;;;;16.48;10.00;;;12.40;90.50;;;;;;4988229;28;20042;-57
2022/11/15 07:43:29;;;;;;;19.42;11.50;;;12.40;90.40;;;;;;4988617;28;20065;-57
2022/11/15 07:45:56;;;;;;;13.82;9.50;;;12.40;90.30;;;;;;4987376;28;20050;-56
2022/11/15 07:48:21;;;;;;;;;;;12.40;90.30;;;;;;4989165;28;20023;-59
2022/11/15 07:50:47;;;;;;;17.38;8.88;;;12.40;90.20;;;;;;4984319;28;19913;-58
2022/11/15 07:53:13;;;;;;;14.87;9.13;;;12.50;90.30;;;;;;4989069;28;20041;-62
2022/11/15 07:55:40;;;;;;;18.27;9.80;;;12.50;90.40;;;;;;4988082;28;20058;-60
2022/11/15 07:58:09;;;;;;;14.25;8.85;;;12.50;90.30;;;;;;4983868;28;20042;-58
2022/11/15 08:00:36;;;;;;;12.85;7.47;;;12.50;90.40;;;;;;4987081;28;20487;-56
2022/11/15 08:03:02;;;;;;;15.00;8.20;;;12.50;90.20;;;;;;4989537;28;20066;-56
2022/11/15 08:05:28;;;;;;;11.55;8.20;;;12.50;90.30;;;;;;4984793;28;20042;-59
2022/11/15 08:07:56;;;;;;;18.60;9.70;;;12.50;90.30;;;;;;4984531;28;20034;-56
2022/11/15 08:10:22;;;;;;;13.95;9.27;;;12.50;90.30;;;;;;4988046;28;20376;-58
2022/11/15 08:12:47;;;;;;;15.40;9.65;;;12.50;90.40;;;;;;4990561;28;20110;-57
2022/11/15 08:15:13;;;;;;;16.77;10.30;;;12.50;90.60;;;;;;4985636;28;20042;-57
2022/11/15 08:17:39;;;;;;;16.20;10.20;;;12.50;90.60;;;;;;4989701;28;20034;-58
2022/11/15 08:20:05;;;;;;;12.50;8.93;;;12.60;90.70;;;;;;4988415;28;20041;-56
2022/11/15 08:22:30;;;;;;;14.02;8.18;;;12.60;90.60;;;;;;4986587;28;20089;-56
2022/11/15 08:24:56;;;;;;;13.60;8.40;;;12.60;90.40;;;;;;4985553;28;20494;-56
2022/11/15 08:27:22;;;;;;;12.67;7.70;;;12.60;90.40;;;;;;4988973;28;20030;-57
2022/11/15 08:29:48;;;;;;;11.32;8.25;;;12.60;90.40;;;;;;4986319;28;20077;-56
2022/11/15 08:32:14;;;;;;;10.80;8.43;;;12.70;90.40;;;;;;4989420;28;20394;-58
2022/11/15 08:34:40;;;;;;;14.05;8.45;;;12.80;90.40;;;;;;4979105;28;20037;-56
2022/11/15 08:37:05;;;;;;;11.37;7.73;;;12.90;90.20;;;;;;4982726;28;20109;-56
2022/11/15 08:39:31;;;;;;;14.17;8.53;;;12.90;90.20;;;;;;4985614;28;20030;-58
2022/11/15 08:41:57;;;;;;;13.15;8.15;;;13.00;90.20;;;;;;4982016;28;20093;-64
2022/11/15 08:44:23;;;;;;;14.95;9.55;;;13.00;90.40;;;;;;4988260;28;20035;-63
2022/11/15 08:46:49;;;;;;;17.55;9.48;;;13.10;90.20;;;;;;4983846;28;20085;-56
2022/11/15 08:49:15;;;;;;;16.10;8.50;;;13.10;90.20;;;;;;4986727;28;20713;-56
2022/11/15 08:51:41;;;;;;;12.13;8.43;;;13.10;90.00;;;;;;4985429;28;20022;-56
2022/11/15 08:54:06;;;;;;;16.20;9.07;;;13.10;90.10;;;;;;4985803;28;20261;-54
2022/11/15 08:56:32;;;;;;;15.13;8.90;;;13.20;90.00;;;;;;4985963;28;20054;-56
2022/11/15 08:58:58;;;;;;;12.07;8.80;;;13.20;90.00;;;;;;4986256;28;20065;-55
2022/11/15 09:01:23;;;;;;;13.53;8.27;;;13.20;89.70;;;;;;4982586;28;20031;-56
2022/11/15 09:03:49;;;;;;;11.88;7.90;;;13.30;89.80;;;;;;4988709;28;20022;-57
2022/11/15 09:06:15;;;;;;;13.17;7.83;;;13.20;89.10;;;;;;4986774;28;20038;-56
2022/11/15 09:08:41;;;;;;;17.23;8.90;;;13.20;88.90;;;;;;4981853;28;20501;-59
2022/11/15 09:11:08;;;;;;;15.40;8.35;;;13.30;88.80;;;;;;4985364;28;20058;-57
2022/11/15 09:13:36;;;;;;;15.15;8.75;;;13.30;89.80;;;;;;4988035;28;20031;-61
2022/11/15 09:16:03;;;;;;;13.23;7.60;;;13.30;89.50;;;;;;4984412;28;20080;-61
2022/11/15 09:18:29;;;;;;;18.50;7.70;;;13.30;89.70;;;;;;4985949;28;20023;-62
2022/11/15 09:20:58;;;;;;;12.38;7.65;;;13.40;89.10;;;;;;4986238;28;20049;-57
2022/11/15 09:23:24;;;;;;;9.82;6.60;;;13.40;89.50;;;;;;4988408;28;20026;-59
2022/11/15 09:25:50;;;;;;;13.05;8.10;;;13.40;89.00;;;;;;4985850;28;20026;-60
2022/11/15 09:28:16;;;;;;;12.63;7.07;;;13.40;89.40;;;;;;4985058;28;20121;-62
2022/11/15 09:30:42;;;;;;;15.70;7.23;;;13.50;89.40;;;;;;4986138;28;20129;-62
2022/11/15 09:33:09;;;;;;;8.67;5.93;;;13.50;89.10;;;;;;4983887;28;20483;-63
2022/11/15 09:35:35;;;;;;;13.18;6.70;;;13.50;88.70;;;;;;4985607;28;20047;-58
2022/11/15 09:38:01;;;;;;;10.20;6.70;;;13.50;88.90;;;;;;4983209;28;20041;-64
2022/11/15 09:40:27;;;;;;;10.50;6.50;;;13.50;89.00;;;;;;4986724;28;20086;-64
2022/11/15 09:43:29;;;;;;;9.70;5.60;;;13.50;88.70;;;;;;4983497;28;20399;-64
2022/11/15 09:46:21;;;;;;;9.98;6.20;;;13.50;88.20;;;;;;4983047;28;20038;-63
2022/11/15 09:48:49;;;;;;;12.32;5.78;;;13.60;88.50;;;;;;4985892;28;20110;-63
2022/11/15 09:51:27;;;;;;;11.88;6.13;;;13.60;88.00;;;;;;4985033;28;20488;-63
2022/11/15 09:54:04;;;;;;;9.10;5.38;;;13.60;88.00;;;;;;4988252;28;20015;-61
2022/11/15 09:56:34;;;;;;;13.50;5.00;;;13.70;88.30;;;;;;4985763;28;20019;-60
2022/11/15 09:59:12;;;;;;;10.82;4.97;;;13.60;87.80;;;;;;4985725;28;20435;-57
2022/11/15 10:01:47;;;;;;;8.25;5.60;;;13.60;88.20;;;;;;4985313;28;20134;-65
2022/11/15 10:04:14;;;;;;;12.65;5.53;;;13.70;87.70;;;;;;4987920;28;20026;-62
2022/11/15 10:06:50;;;;;;;8.82;5.63;;;13.70;88.20;;;;;;4985801;28;20470;-56
2022/11/15 10:09:38;;;;;;;8.35;5.30;;;13.80;88.10;;;;;;4986081;28;20113;-55
2022/11/15 10:12:04;;;;;;;9.20;5.50;;;13.80;88.30;;;;;;4985397;28;20050;-60
2022/11/15 10:14:31;;;;;;;13.18;5.90;;;13.80;87.60;;;;;;5000736;28;20031;-55
2022/11/15 10:17:40;;;;;;;8.57;5.03;;;13.90;87.20;;;;;;4986434;28;20129;-58
2022/11/15 10:20:10;;;;;;;;;;;13.90;87.30;;;;;;4988494;28;20018;-57
2022/11/15 10:22:41;;;;;;;11.13;5.28;;;13.90;87.30;;;;;;4991602;28;20000;-55
2022/11/15 10:25:14;;;;;;;9.40;4.68;;;14.00;87.30;;;;;;4990311;28;20584;-56
2022/11/15 10:27:42;;;;;;;10.73;4.60;;;14.10;87.10;;;;;;4981126;28;20037;-56
2022/11/15 10:30:13;;;;;;;10.45;4.15;;;14.10;86.30;;;;;;4988963;28;20069;-55
2022/11/15 10:32:41;;;;;;;7.57;4.35;;;14.10;87.00;;;;;;4989728;28;20649;-56
2022/11/15 10:35:21;;;;;;;6.93;3.92;;;14.20;87.50;;;;;;4987472;28;20038;-56
2022/11/15 10:37:47;;;;;;;9.75;4.72;;;14.20;87.70;;;;;;4986328;28;20056;-58
2022/11/15 10:40:23;;;;;;;7.13;4.60;;;14.20;88.00;;;;;;4986338;28;20041;-62
2022/11/15 10:43:09;;;;;;;11.40;4.50;;;14.20;87.50;;;;;;4988568;28;20109;-61
2022/11/15 10:45:36;;;;;;;11.93;4.03;;;14.20;86.70;;;;;;4988366;28;20046;-57
2022/11/15 10:48:13;;;;;;;7.80;4.40;;;14.20;85.70;;;;;;4990374;28;20688;-58
2022/11/15 10:50:41;;;;;;;6.28;3.95;;;14.30;86.40;;;;;;4988908;28;20429;-58
2022/11/15 10:53:19;;;;;;;10.02;3.67;;;14.30;86.70;;;;;;4986268;28;20038;-61
2022/11/15 10:55:48;;;;;;;9.75;3.65;;;14.30;85.80;;;;;;4989355;28;20042;-55
2022/11/15 10:58:25;;;;;;;5.95;4.18;;;14.30;84.80;;;;;;4986558;28;20034;-58
2022/11/15 11:00:53;;;;;;;7.22;3.85;;;14.40;86.20;;;;;;4991897;28;20027;-57
2022/11/15 11:03:39;;;;;;;6.28;3.40;;;14.40;85.60;;;;;;4989079;28;20364;-61
2022/11/15 11:06:09;;;;;;;6.68;3.25;;;14.40;84.50;;;;;;4986595;28;20060;-59
2022/11/15 11:08:36;;;;;;;6.70;3.78;;;14.40;84.30;;;;;;4988588;28;20039;-57
2022/11/15 11:11:03;;;;;;;7.25;3.65;;;14.40;85.40;;;;;;4988144;28;20031;-56
2022/11/15 11:13:38;;;;;;;8.77;4.55;;;14.40;84.70;;;;;;4987503;28;20065;-68
2022/11/15 11:16:21;;;;;;;7.10;4.10;;;14.40;84.90;;;;;;4985697;28;20206;-58
2022/11/15 11:19:02;;;;;;;6.35;3.95;;;14.40;85.30;;;;;;4988191;28;20078;-57
2022/11/15 11:21:58;;;;;;;5.53;3.88;;;14.50;84.70;;;;;;4987758;28;20113;-59
2022/11/15 11:24:37;;;;;;;6.53;4.65;;;14.40;84.80;;;;;;4983223;28;20499;-57
2022/11/15 11:27:15;;;;;;;7.43;3.92;;;14.50;85.50;;;;;;4985948;28;20088;-56
2022/11/15 11:29:46;;;;;;;6.13;3.83;;;14.50;84.70;;;;;;4989017;28;20483;-63
2022/11/15 11:32:27;;;;;;;7.38;3.70;;;14.50;84.80;;;;;;4987002;28;20096;-57
2022/11/15 11:34:55;;;;;;;6.97;3.60;;;14.50;84.30;;;;;;4987915;28;20089;-61
2022/11/15 11:37:44;;;;;;;5.80;4.20;;;14.60;85.20;;;;;;4986295;28;20034;-62
2022/11/15 11:40:15;;;;;;;10.35;3.90;;;14.60;84.10;;;;;;4984538;28;20034;-60
2022/11/15 11:42:58;;;;;;;4.88;3.70;;;14.60;85.30;;;;;;4987897;28;20033;-59
2022/11/15 11:45:32;;;;;;;6.65;3.40;;;14.60;85.00;;;;;;4988002;28;20105;-61
2022/11/15 11:48:21;;;;;;;7.25;3.70;;;14.70;84.20;;;;;;4987899;28;20045;-63
2022/11/15 11:50:47;;;;;;;4.53;3.28;;;14.70;84.20;;;;;;4987852;28;20502;-61
2022/11/15 11:53:48;;;;;;;7.30;3.67;;;14.70;82.60;;;;;;4987454;28;20038;-60
2022/11/15 11:56:22;;;;;;;6.80;4.00;;;14.80;85.40;;;;;;4973926;28;20050;-61
2022/11/15 11:58:52;;;;;;;7.57;3.40;;;14.80;84.20;;;;;;4985370;28;20034;-65
2022/11/15 12:01:29;;;;;;;10.98;4.15;;;14.80;83.90;;;;;;4987658;28;20044;-61
2022/11/15 12:04:09;;;;;;;10.60;3.70;;;14.90;83.90;;;;;;4987692;28;20038;-64
2022/11/15 12:06:56;;;;;;;12.40;4.55;;;14.90;83.50;;;;;;4987718;28;20129;-64
2022/11/15 12:09:34;;;;;;;7.78;3.95;;;15.00;84.90;;;;;;4986569;28;20168;-57
2022/11/15 12:12:21;;;;;;;6.90;4.10;;;15.00;84.60;;;;;;4987495;28;20754;-58
2022/11/15 12:14:54;;;;;;;8.60;4.20;;;15.00;83.30;;;;;;4981220;28;20037;-58
2022/11/15 12:17:26;;;;;;;5.28;3.90;;;15.00;82.20;;;;;;4985250;28;20783;-58
2022/11/15 12:19:56;;;;;;;6.35;4.00;;;15.00;84.50;;;;;;4988195;28;20117;-57
2022/11/15 12:22:27;;;;;;;7.50;5.00;;;15.00;84.90;;;;;;4986060;28;20025;-56
2022/11/15 12:25:07;;;;;;;7.22;3.70;;;15.10;85.40;;;;;;4987047;28;20045;-56
2022/11/15 12:27:48;;;;;;;7.40;3.80;;;15.10;83.50;;;;;;4986828;28;20049;-58
2022/11/15 12:30:17;;;;;;;7.03;3.67;;;15.00;84.10;;;;;;4986286;28;20119;-56
2022/11/15 12:32:56;;;;;;;6.90;4.15;;;15.00;83.80;;;;;;4986396;28;20031;-57
2022/11/15 12:35:42;;;;;;;9.02;3.40;;;15.00;82.70;;;;;;4985803;28;20447;-58
2022/11/15 12:38:12;;;;;;;5.40;3.53;;;15.00;83.50;;;;;;4984588;28;20037;-59
2022/11/15 12:40:58;;;;;;;5.25;3.63;;;15.00;82.80;;;;;;4987356;28;20030;-56
2022/11/15 12:43:42;;;;;;;11.30;4.07;;;15.00;83.40;;;;;;4985130;28;20026;-61
2022/11/15 12:46:33;;;;;;;10.10;3.28;;;15.00;83.60;;;;;;4987150;28;20065;-61
2022/11/15 12:49:00;;;;;;;10.50;4.18;;;15.00;83.10;;;;;;4991633;28;20038;-61
2022/11/15 12:51:47;;;;;;;16.15;3.75;;;15.00;83.40;;;;;;4983985;28;20019;-63
2022/11/15 12:54:22;;;;;;;6.43;3.90;;;15.00;83.50;;;;;;4985130;28;20034;-60
2022/11/15 12:57:03;;;;;;;10.57;4.05;;;15.00;82.50;;;;;;4981405;28;20165;-58
2022/11/15 12:59:55;;;;;;;14.48;4.47;;;15.00;82.30;;;;;;4985532;28;20491;-61